createdAt,value
2023-09-29T00:00:17.329Z,10.30
2023-09-29T00:02:47.714Z,10.30
2023-09-29T00:05:19.672Z,10.30
2023-09-29T00:07:48.457Z,10.40
2023-09-29T00:10:18.086Z,10.30
2023-09-29T00:12:46.594Z,10.30
2023-09-29T00:15:14.806Z,10.20
2023-09-29T00:17:43.228Z,10.20
2023-09-29T00:20:18.981Z,10.30
2023-09-29T00:22:48.374Z,10.20
2023-09-29T00:25:16.652Z,10.00
2023-09-29T00:27:44.722Z,10.10
2023-09-29T00:30:14.569Z,10.10
2023-09-29T00:32:46.310Z,10.10
2023-09-29T00:35:19.741Z,10.10
2023-09-29T00:37:49.809Z,10.10
2023-09-29T00:40:17.959Z,10.10
2023-09-29T00:42:47.837Z,10.10
2023-09-29T00:45:17.275Z,10.10
2023-09-29T00:47:48.120Z,10.00
2023-09-29T00:50:16.289Z,9.90
2023-09-29T00:52:45.553Z,9.80
2023-09-29T00:55:17.077Z,9.80
2023-09-29T00:57:49.022Z,9.60
2023-09-29T01:00:22.584Z,9.60
2023-09-29T01:02:51.095Z,9.50
2023-09-29T01:05:19.786Z,9.50
2023-09-29T01:07:48.258Z,9.60
2023-09-29T01:10:18.942Z,9.60
2023-09-29T01:12:47.608Z,9.60
2023-09-29T01:15:20.269Z,9.60
2023-09-29T01:17:49.063Z,9.50
2023-09-29T01:20:26.291Z,9.40
2023-09-29T01:22:54.496Z,9.40
2023-09-29T01:25:23.879Z,9.40
2023-09-29T01:27:53.209Z,9.60
2023-09-29T01:30:21.416Z,9.60
2023-09-29T01:32:50.743Z,9.50
2023-09-29T01:35:24.459Z,9.40
2023-09-29T01:37:54.669Z,9.20
2023-09-29T01:40:24.696Z,8.70
2023-09-29T01:42:54.172Z,8.80
2023-09-29T01:45:22.595Z,9.00
2023-09-29T01:47:51.842Z,8.90
2023-09-29T01:50:21.595Z,8.80
2023-09-29T01:52:50.774Z,8.90
2023-09-29T01:55:23.704Z,8.90
2023-09-29T01:57:55.987Z,8.90
2023-09-29T02:00:26.681Z,9.00
2023-09-29T02:02:56.512Z,8.80
2023-09-29T02:05:25.463Z,8.80
2023-09-29T02:07:54.290Z,8.90
2023-09-29T02:10:23.633Z,8.90
2023-09-29T02:12:58.074Z,8.90
2023-09-29T02:15:26.872Z,9.00
2023-09-29T02:17:55.413Z,8.70
2023-09-29T02:20:38.722Z,8.70
2023-09-29T02:23:08.306Z,8.50
2023-09-29T02:25:36.732Z,8.50
2023-09-29T02:28:06.561Z,8.30
2023-09-29T02:30:35.210Z,8.00
2023-09-29T02:33:03.383Z,7.90
2023-09-29T02:35:32.014Z,7.80
2023-09-29T02:38:00.763Z,8.00
2023-09-29T02:40:29.775Z,8.10
2023-09-29T02:42:58.101Z,8.20
2023-09-29T02:45:27.782Z,8.20
2023-09-29T02:47:56.770Z,8.10
2023-09-29T02:50:26.279Z,8.10
2023-09-29T02:52:54.739Z,8.20
2023-09-29T02:55:24.040Z,8.30
2023-09-29T02:57:52.144Z,8.30
2023-09-29T03:00:21.444Z,8.40
2023-09-29T03:02:52.519Z,8.40
2023-09-29T03:05:22.386Z,8.40
2023-09-29T03:07:52.357Z,8.20
2023-09-29T03:10:22.235Z,8.30
2023-09-29T03:12:50.640Z,8.30
2023-09-29T03:15:18.748Z,8.00
2023-09-29T03:17:47.902Z,8.00
2023-09-29T03:20:17.752Z,7.70
2023-09-29T03:22:47.362Z,7.50
2023-09-29T03:25:17.907Z,7.30
2023-09-29T03:27:46.805Z,7.20
2023-09-29T03:30:16.582Z,7.20
2023-09-29T03:32:45.121Z,7.30
2023-09-29T03:35:14.601Z,7.30
2023-09-29T03:37:46.077Z,7.30
2023-09-29T03:40:15.098Z,7.30
2023-09-29T03:42:43.624Z,7.30
2023-09-29T03:45:13.657Z,7.40
2023-09-29T03:47:42.596Z,7.50
2023-09-29T03:50:12.622Z,7.50
2023-09-29T03:52:41.410Z,7.40
2023-09-29T03:55:13.191Z,7.30
2023-09-29T03:57:42.429Z,7.20
2023-09-29T04:00:13.045Z,7.10
2023-09-29T04:02:42.720Z,7.00
2023-09-29T04:05:11.778Z,6.90
2023-09-29T04:07:41.906Z,6.90
2023-09-29T04:10:13.695Z,7.00
2023-09-29T04:12:47.267Z,7.00
2023-09-29T04:15:16.107Z,6.90
2023-09-29T04:17:44.736Z,6.90
2023-09-29T04:20:13.910Z,7.00
2023-09-29T04:22:42.123Z,6.90
2023-09-29T04:25:12.522Z,7.00
2023-09-29T04:27:41.262Z,6.90
2023-09-29T04:30:11.332Z,6.90
2023-09-29T04:32:39.737Z,7.00
2023-09-29T04:35:08.556Z,7.20
2023-09-29T04:37:36.812Z,7.30
2023-09-29T04:40:05.507Z,7.30
2023-09-29T04:42:35.547Z,7.10
2023-09-29T04:45:04.645Z,6.90
2023-09-29T04:47:33.017Z,6.70
2023-09-29T04:50:01.221Z,6.60
2023-09-29T04:52:29.227Z,6.50
2023-09-29T04:54:57.250Z,6.70
2023-09-29T04:57:25.276Z,6.60
2023-09-29T04:59:54.655Z,6.70
2023-09-29T05:02:22.642Z,6.60
2023-09-29T05:04:50.720Z,6.50
2023-09-29T05:07:18.695Z,6.40
2023-09-29T05:09:47.688Z,6.50
2023-09-29T05:12:15.765Z,6.60
2023-09-29T05:14:43.828Z,6.70
2023-09-29T05:17:13.973Z,6.70
2023-09-29T05:19:41.975Z,6.70
2023-09-29T05:22:10.286Z,6.50
2023-09-29T05:24:38.255Z,6.50
2023-09-29T05:27:06.360Z,6.60
2023-09-29T05:29:35.229Z,6.60
2023-09-29T05:32:03.317Z,6.50
2023-09-29T05:34:32.724Z,6.40
2023-09-29T05:37:00.690Z,6.40
2023-09-29T05:39:28.665Z,6.40
2023-09-29T05:41:56.779Z,6.60
2023-09-29T05:44:24.845Z,6.70
2023-09-29T05:46:52.844Z,6.80
2023-09-29T05:49:20.907Z,6.80
2023-09-29T05:51:50.591Z,7.00
2023-09-29T05:54:18.740Z,7.00
2023-09-29T05:56:47.136Z,6.90
2023-09-29T05:59:15.108Z,6.90
2023-09-29T06:01:43.135Z,7.00
2023-09-29T06:04:11.245Z,7.10
2023-09-29T06:06:39.753Z,7.30
2023-09-29T06:09:09.141Z,7.50
2023-09-29T06:11:37.172Z,7.60
2023-09-29T06:14:05.267Z,7.70
2023-09-29T06:16:33.471Z,7.80
2023-09-29T06:19:01.534Z,7.90
2023-09-29T06:21:29.834Z,8.00
2023-09-29T06:23:57.930Z,8.10
2023-09-29T06:26:27.565Z,8.30
2023-09-29T06:28:55.663Z,8.60
2023-09-29T06:31:23.760Z,8.90
2023-09-29T06:33:51.962Z,9.10
2023-09-29T06:36:20.027Z,9.40
2023-09-29T06:38:48.131Z,9.80
2023-09-29T06:41:17.876Z,10.00
2023-09-29T06:43:48.733Z,9.90
2023-09-29T06:46:16.791Z,10.20
2023-09-29T06:48:45.812Z,10.30
2023-09-29T06:51:13.944Z,10.50
2023-09-29T06:53:42.161Z,10.60
2023-09-29T06:56:10.190Z,10.90
2023-09-29T06:58:38.332Z,11.20
2023-09-29T07:01:08.542Z,11.40
2023-09-29T07:03:37.020Z,11.30
2023-09-29T07:06:05.557Z,11.50
2023-09-29T07:08:34.042Z,11.80
2023-09-29T07:11:02.094Z,12.00
2023-09-29T07:13:30.079Z,12.00
2023-09-29T07:15:58.146Z,12.10
2023-09-29T07:18:27.625Z,12.40
2023-09-29T07:20:55.714Z,12.30
2023-09-29T07:23:24.329Z,12.30
2023-09-29T07:25:53.340Z,12.60
2023-09-29T07:28:22.039Z,12.90
2023-09-29T07:30:51.822Z,13.10
2023-09-29T07:33:20.528Z,13.30
2023-09-29T07:35:50.194Z,13.50
2023-09-29T07:38:19.116Z,13.90
2023-09-29T07:40:48.481Z,14.10
2023-09-29T07:43:16.574Z,14.20
2023-09-29T07:45:48.108Z,14.10
2023-09-29T07:48:17.584Z,14.50
2023-09-29T07:50:46.740Z,14.60
2023-09-29T07:53:16.402Z,14.80
2023-09-29T07:55:44.496Z,15.10
2023-09-29T07:58:12.570Z,15.30
2023-09-29T08:00:40.548Z,15.40
2023-09-29T08:03:08.922Z,15.40
2023-09-29T08:05:37.437Z,15.10
2023-09-29T08:08:06.047Z,15.20
2023-09-29T08:10:35.565Z,15.00
2023-09-29T08:13:03.605Z,14.70
2023-09-29T08:15:31.578Z,14.90
2023-09-29T08:17:59.740Z,15.00
2023-09-29T08:20:27.804Z,15.10
2023-09-29T08:22:55.974Z,15.30
2023-09-29T08:25:23.937Z,15.50
2023-09-29T08:27:53.579Z,16.00
2023-09-29T08:30:22.398Z,16.20
2023-09-29T08:32:56.718Z,16.30
2023-09-29T08:35:31.035Z,16.30
2023-09-29T08:38:00.005Z,16.30
2023-09-29T08:40:28.131Z,16.50
2023-09-29T08:42:58.030Z,16.70
2023-09-29T08:45:30.175Z,16.90
2023-09-29T08:48:01.899Z,17.20
2023-09-29T08:50:29.981Z,17.20
2023-09-29T08:53:01.844Z,17.40
2023-09-29T08:55:31.720Z,17.40
2023-09-29T08:58:02.526Z,17.40
2023-09-29T09:00:32.178Z,17.60
2023-09-29T09:03:02.366Z,17.90
2023-09-29T09:05:30.588Z,18.00
2023-09-29T09:08:02.419Z,18.40
2023-09-29T09:10:34.476Z,18.40
2023-09-29T09:13:04.536Z,18.40
2023-09-29T09:15:33.141Z,18.40
2023-09-29T09:18:01.486Z,18.70
2023-09-29T09:20:30.407Z,19.00
2023-09-29T09:22:59.844Z,19.20
2023-09-29T09:25:40.050Z,19.10
2023-09-29T09:28:17.083Z,19.60
2023-09-29T09:30:45.812Z,20.10
2023-09-29T09:33:20.148Z,20.30
2023-09-29T09:35:48.244Z,20.10
2023-09-29T09:38:16.353Z,20.10
2023-09-29T09:40:48.698Z,20.20
2023-09-29T09:43:20.826Z,20.40
2023-09-29T09:45:52.728Z,20.50
2023-09-29T09:48:23.665Z,20.80
2023-09-29T09:50:54.921Z,20.90
2023-09-29T09:53:26.721Z,21.10
2023-09-29T09:55:58.318Z,21.60
2023-09-29T09:58:28.110Z,21.70
2023-09-29T10:00:57.033Z,21.90
2023-09-29T10:03:29.147Z,22.00
2023-09-29T10:06:00.263Z,22.00
2023-09-29T10:08:32.348Z,21.90
2023-09-29T10:11:12.789Z,21.50
2023-09-29T10:13:43.619Z,21.70
2023-09-29T10:16:22.736Z,21.90
2023-09-29T10:18:58.762Z,22.10
2023-09-29T10:21:28.362Z,22.10
2023-09-29T10:24:01.223Z,22.40
2023-09-29T10:26:29.848Z,22.40
2023-09-29T10:29:03.672Z,22.40
2023-09-29T10:31:31.838Z,22.50
2023-09-29T10:34:02.150Z,22.60
2023-09-29T10:36:31.979Z,22.60
2023-09-29T10:39:05.313Z,22.60
2023-09-29T10:41:37.014Z,22.70
2023-09-29T10:44:07.635Z,22.60
2023-09-29T10:46:35.934Z,22.70
2023-09-29T10:49:04.145Z,22.70
2023-09-29T10:51:33.517Z,22.90
2023-09-29T10:54:08.198Z,22.90
2023-09-29T10:56:38.485Z,23.00
2023-09-29T10:59:09.936Z,23.20
2023-09-29T11:01:38.440Z,23.10
2023-09-29T11:04:10.244Z,23.10
2023-09-29T11:06:48.141Z,22.90
2023-09-29T11:09:22.104Z,22.90
2023-09-29T11:11:50.708Z,23.20
2023-09-29T11:14:20.161Z,23.20
2023-09-29T11:16:58.082Z,23.20
2023-09-29T11:19:27.768Z,23.30
2023-09-29T11:21:56.176Z,23.20
2023-09-29T11:24:24.403Z,23.30
2023-09-29T11:26:56.650Z,23.50
2023-09-29T11:29:29.085Z,23.70
2023-09-29T11:31:59.026Z,23.70
2023-09-29T11:34:30.552Z,23.80
2023-09-29T11:36:58.540Z,23.70
2023-09-29T11:39:26.573Z,23.80
2023-09-29T11:41:54.685Z,23.90
2023-09-29T11:44:22.770Z,23.90
2023-09-29T11:46:53.255Z,23.80
2023-09-29T11:49:21.671Z,23.70
2023-09-29T11:51:53.801Z,23.50
2023-09-29T11:54:21.939Z,23.70
2023-09-29T11:56:50.248Z,23.60
2023-09-29T11:59:18.510Z,23.40
2023-09-29T12:01:46.583Z,23.20
2023-09-29T12:04:16.628Z,23.20
2023-09-29T12:06:44.844Z,23.50
2023-09-29T12:09:12.870Z,23.70
2023-09-29T12:11:41.384Z,23.80
2023-09-29T12:14:09.916Z,23.60
2023-09-29T12:16:38.098Z,23.60
2023-09-29T12:19:06.362Z,23.70
2023-09-29T12:21:35.685Z,23.40
2023-09-29T12:24:03.672Z,23.50
2023-09-29T12:26:31.701Z,23.60
2023-09-29T12:28:59.899Z,23.70
2023-09-29T12:31:28.041Z,23.90
2023-09-29T12:33:57.602Z,23.80
2023-09-29T12:36:25.848Z,23.80
2023-09-29T12:38:55.552Z,23.90
2023-09-29T12:41:24.147Z,23.90
2023-09-29T12:43:52.183Z,24.00
2023-09-29T12:46:20.657Z,24.00
2023-09-29T12:48:49.240Z,23.90
2023-09-29T12:51:26.235Z,23.80
2023-09-29T12:53:58.446Z,23.80
2023-09-29T12:56:27.661Z,23.80
2023-09-29T12:58:56.929Z,23.80
2023-09-29T13:01:26.431Z,23.90
2023-09-29T13:03:55.038Z,23.90
2023-09-29T13:06:24.924Z,24.00
2023-09-29T13:08:53.141Z,23.90
2023-09-29T13:11:22.562Z,24.00
2023-09-29T13:13:50.626Z,24.00
2023-09-29T13:16:18.659Z,24.20
2023-09-29T13:18:47.098Z,24.20
2023-09-29T13:21:15.797Z,24.30
2023-09-29T13:23:44.501Z,24.30
2023-09-29T13:26:12.599Z,24.30
2023-09-29T13:28:41.966Z,24.30
2023-09-29T13:31:09.986Z,24.30
2023-09-29T13:33:38.046Z,24.30
2023-09-29T13:36:07.036Z,24.30
2023-09-29T13:38:35.120Z,24.10
2023-09-29T13:41:03.380Z,24.20
2023-09-29T13:43:31.715Z,23.80
2023-09-29T13:46:01.203Z,23.70
2023-09-29T13:48:29.332Z,23.90
2023-09-29T13:50:59.430Z,23.90
2023-09-29T13:53:27.644Z,24.10
2023-09-29T13:55:56.015Z,24.30
2023-09-29T13:58:24.043Z,24.20
2023-09-29T14:00:53.192Z,24.00
2023-09-29T14:03:22.861Z,24.00
2023-09-29T14:05:50.946Z,24.10
2023-09-29T14:08:20.209Z,24.30
2023-09-29T14:10:48.917Z,24.40
2023-09-29T14:13:17.641Z,24.30
2023-09-29T14:15:45.817Z,24.30
2023-09-29T14:18:14.098Z,24.30
2023-09-29T14:20:45.104Z,24.40
2023-09-29T14:23:13.526Z,24.40
2023-09-29T14:25:41.464Z,24.40
2023-09-29T14:28:10.411Z,24.50
2023-09-29T14:30:38.830Z,24.50
2023-09-29T14:33:07.228Z,24.50
2023-09-29T14:35:46.477Z,24.50
2023-09-29T14:38:19.015Z,24.30
2023-09-29T14:40:47.210Z,24.40
2023-09-29T14:43:16.361Z,24.30
2023-09-29T14:45:45.628Z,24.20
2023-09-29T14:48:13.999Z,24.00
2023-09-29T14:50:42.293Z,24.10
2023-09-29T14:53:10.380Z,24.20
2023-09-29T14:55:41.026Z,24.30
2023-09-29T14:58:09.738Z,24.00
2023-09-29T15:00:42.320Z,24.00
2023-09-29T15:03:10.585Z,24.20
2023-09-29T15:05:41.121Z,24.30
2023-09-29T15:08:09.206Z,24.20
2023-09-29T15:10:37.206Z,24.20
2023-09-29T15:13:06.676Z,24.00
2023-09-29T15:15:34.751Z,24.10
2023-09-29T15:18:05.820Z,24.00
2023-09-29T15:20:34.092Z,24.10
2023-09-29T15:23:02.100Z,24.00
2023-09-29T15:25:30.059Z,24.00
2023-09-29T15:27:58.044Z,24.00
2023-09-29T15:30:27.376Z,23.80
2023-09-29T15:32:55.743Z,23.80
2023-09-29T15:35:23.859Z,23.60
2023-09-29T15:37:51.842Z,23.50
2023-09-29T15:40:19.877Z,23.30
2023-09-29T15:42:48.046Z,23.20
2023-09-29T15:45:16.092Z,23.10
2023-09-29T15:47:45.438Z,23.10
2023-09-29T15:50:13.556Z,23.10
2023-09-29T15:52:42.221Z,22.80
2023-09-29T15:55:11.596Z,22.80
2023-09-29T15:57:39.699Z,22.70
2023-09-29T16:00:09.386Z,22.60
2023-09-29T16:02:38.247Z,22.40
2023-09-29T16:05:09.565Z,22.30
2023-09-29T16:07:38.406Z,22.30
2023-09-29T16:10:07.624Z,22.10
2023-09-29T16:12:35.718Z,22.10
2023-09-29T16:15:03.841Z,22.10
2023-09-29T16:17:34.267Z,22.10
2023-09-29T16:20:02.600Z,22.00
2023-09-29T16:22:33.068Z,21.90
2023-09-29T16:25:01.522Z,21.60
2023-09-29T16:27:29.570Z,21.60
2023-09-29T16:29:57.542Z,21.60
2023-09-29T16:32:32.183Z,21.40
2023-09-29T16:35:02.298Z,21.30
2023-09-29T16:37:33.665Z,21.10
2023-09-29T16:40:11.714Z,20.90
2023-09-29T16:42:47.555Z,20.80
2023-09-29T16:45:16.770Z,20.60
2023-09-29T16:47:46.462Z,20.30
2023-09-29T16:50:16.431Z,20.20
2023-09-29T16:52:46.417Z,20.10
2023-09-29T16:55:14.520Z,20.00
2023-09-29T16:57:42.622Z,19.80
2023-09-29T17:00:12.329Z,19.70
2023-09-29T17:02:40.656Z,19.50
2023-09-29T17:05:09.951Z,19.40
2023-09-29T17:07:38.055Z,19.20
2023-09-29T17:10:08.897Z,19.20
2023-09-29T17:12:36.923Z,19.10
2023-09-29T17:15:08.294Z,18.90
2023-09-29T17:17:36.350Z,18.80
2023-09-29T17:20:05.043Z,18.50
2023-09-29T17:22:33.471Z,18.40
2023-09-29T17:25:01.874Z,18.30
2023-09-29T17:27:31.408Z,18.30
2023-09-29T17:29:59.875Z,18.20
2023-09-29T17:32:28.093Z,18.10
2023-09-29T17:35:01.610Z,18.00
2023-09-29T17:37:30.274Z,17.80
2023-09-29T17:39:58.445Z,17.50
2023-09-29T17:42:26.573Z,17.40
2023-09-29T17:44:55.953Z,17.30
2023-09-29T17:47:23.993Z,17.20
2023-09-29T17:49:52.035Z,17.20
2023-09-29T17:52:20.213Z,17.00
2023-09-29T17:54:48.389Z,16.90
2023-09-29T17:57:19.382Z,16.80
2023-09-29T17:59:47.578Z,16.70
2023-09-29T18:02:16.961Z,16.60
2023-09-29T18:04:45.159Z,16.60
2023-09-29T18:07:14.620Z,16.60
2023-09-29T18:09:42.602Z,16.50
2023-09-29T18:12:10.722Z,16.30
2023-09-29T18:14:38.865Z,16.20
2023-09-29T18:17:06.860Z,15.90
2023-09-29T18:19:36.259Z,15.80
2023-09-29T18:22:04.332Z,15.60
2023-09-29T18:24:32.538Z,15.60
2023-09-29T18:27:00.588Z,15.60
2023-09-29T18:29:28.618Z,15.50
2023-09-29T18:31:57.298Z,15.50
2023-09-29T18:34:25.294Z,15.30
2023-09-29T18:36:55.206Z,15.20
2023-09-29T18:39:23.413Z,15.10
2023-09-29T18:41:52.860Z,14.90
2023-09-29T18:44:21.305Z,14.90
2023-09-29T18:46:49.303Z,15.00
2023-09-29T18:49:17.344Z,15.00
2023-09-29T18:51:45.661Z,14.80
2023-09-29T18:54:16.266Z,14.80
2023-09-29T18:56:44.485Z,14.80
2023-09-29T18:59:13.884Z,14.80
2023-09-29T19:01:41.963Z,14.80
2023-09-29T19:04:13.486Z,14.80
2023-09-29T19:06:43.202Z,14.80
2023-09-29T19:09:12.035Z,14.80
2023-09-29T19:11:41.643Z,14.80
2023-09-29T19:14:12.083Z,14.60
2023-09-29T19:16:40.408Z,14.60
2023-09-29T19:19:09.629Z,14.50
2023-09-29T19:21:37.670Z,14.50
2023-09-29T19:24:06.206Z,14.30
2023-09-29T19:26:34.352Z,14.30
2023-09-29T19:29:03.740Z,14.30
2023-09-29T19:31:34.119Z,14.40
2023-09-29T19:34:02.204Z,14.40
2023-09-29T19:36:31.547Z,14.40
2023-09-29T19:38:59.995Z,14.30
2023-09-29T19:41:29.384Z,14.30
2023-09-29T19:43:57.531Z,14.20
2023-09-29T19:46:28.819Z,14.20
2023-09-29T19:48:57.106Z,14.30
2023-09-29T19:51:25.775Z,14.20
2023-09-29T19:53:55.691Z,14.00
2023-09-29T19:56:24.764Z,14.00
2023-09-29T19:58:53.042Z,14.00
2023-09-29T20:01:23.861Z,14.10
2023-09-29T20:03:53.538Z,14.20
2023-09-29T20:06:21.568Z,14.20
2023-09-29T20:08:51.682Z,14.20
2023-09-29T20:11:22.169Z,14.10
2023-09-29T20:13:50.557Z,14.10
2023-09-29T20:16:19.356Z,14.10
2023-09-29T20:18:47.801Z,13.90
2023-09-29T20:21:18.264Z,13.90
2023-09-29T20:23:46.408Z,14.00
2023-09-29T20:26:14.405Z,14.10
2023-09-29T20:28:43.273Z,14.10
2023-09-29T20:31:11.493Z,14.10
2023-09-29T20:33:39.950Z,14.10
2023-09-29T20:36:08.700Z,14.20
2023-09-29T20:38:38.102Z,14.20
2023-09-29T20:41:06.648Z,14.30
2023-09-29T20:43:34.631Z,14.30
2023-09-29T20:46:02.672Z,14.30
2023-09-29T20:48:30.977Z,14.30
2023-09-29T20:50:58.989Z,14.30
2023-09-29T20:53:29.678Z,14.20
2023-09-29T20:55:59.164Z,14.20
2023-09-29T20:58:27.134Z,14.20
2023-09-29T21:00:58.535Z,14.20
2023-09-29T21:03:27.449Z,14.30
2023-09-29T21:05:55.739Z,14.20
2023-09-29T21:08:23.809Z,14.10
2023-09-29T21:10:55.346Z,14.00
2023-09-29T21:13:24.825Z,13.90
2023-09-29T21:15:54.297Z,14.00
2023-09-29T21:18:22.906Z,14.00
2023-09-29T21:20:54.212Z,14.00
2023-09-29T21:23:22.623Z,14.00
2023-09-29T21:25:50.631Z,14.10
2023-09-29T21:28:18.844Z,14.00
2023-09-29T21:30:48.286Z,14.00
2023-09-29T21:33:16.388Z,14.00
2023-09-29T21:35:44.503Z,14.00
2023-09-29T21:38:12.574Z,14.10
2023-09-29T21:40:40.552Z,14.00
2023-09-29T21:43:09.067Z,14.10
2023-09-29T21:45:37.125Z,14.10
2023-09-29T21:48:07.416Z,14.10
2023-09-29T21:50:35.612Z,14.10
2023-09-29T21:53:03.652Z,14.00
2023-09-29T21:55:31.656Z,14.10
2023-09-29T21:58:00.742Z,14.10
2023-09-29T22:00:39.435Z,14.20
2023-09-29T22:03:10.710Z,14.20
2023-09-29T22:05:40.185Z,14.00
2023-09-29T22:08:08.589Z,13.90
2023-09-29T22:10:37.117Z,13.90
2023-09-29T22:13:05.446Z,13.80
2023-09-29T22:15:33.927Z,13.70
2023-09-29T22:18:04.313Z,13.80
2023-09-29T22:20:34.649Z,13.80
2023-09-29T22:23:02.791Z,13.80
2023-09-29T22:25:30.928Z,13.90
2023-09-29T22:27:59.132Z,13.90
2023-09-29T22:30:27.226Z,14.00
2023-09-29T22:32:55.367Z,13.90
2023-09-29T22:35:23.390Z,13.80
2023-09-29T22:37:52.720Z,13.90
2023-09-29T22:40:20.901Z,13.90
2023-09-29T22:42:50.341Z,14.00
2023-09-29T22:45:18.568Z,14.00
2023-09-29T22:47:46.624Z,14.10
2023-09-29T22:50:15.694Z,14.20
2023-09-29T22:52:44.000Z,14.10
2023-09-29T22:55:15.165Z,14.00
2023-09-29T22:57:43.814Z,13.90
2023-09-29T23:00:13.864Z,13.90
2023-09-29T23:02:44.803Z,13.90
2023-09-29T23:05:13.580Z,13.90
2023-09-29T23:07:41.983Z,13.90
2023-09-29T23:10:14.937Z,13.90
2023-09-29T23:12:46.852Z,13.90
2023-09-29T23:15:15.305Z,14.00
2023-09-29T23:17:43.390Z,14.00
2023-09-29T23:20:12.892Z,14.10
2023-09-29T23:22:42.170Z,14.00
2023-09-29T23:25:12.316Z,14.00
2023-09-29T23:27:41.153Z,14.00
2023-09-29T23:30:13.305Z,14.00
2023-09-29T23:32:41.753Z,14.00
2023-09-29T23:35:10.831Z,14.00
2023-09-29T23:37:38.025Z,14.00
2023-09-29T23:40:07.031Z,14.00
2023-09-29T23:42:35.173Z,14.00
2023-09-29T23:45:03.441Z,14.00
2023-09-29T23:47:33.266Z,14.00
2023-09-29T23:50:01.470Z,14.00
2023-09-29T23:52:29.638Z,14.10
2023-09-29T23:54:57.608Z,14.10
2023-09-29T23:57:25.645Z,14.20
2023-09-29T23:59:54.459Z,14.10
